createdAt,value
2019-03-19T00:00:33.286Z,7.25
2019-03-19T00:03:00.012Z,7.02
2019-03-19T00:05:27.114Z,7.02
2019-03-19T00:07:54.297Z,6.98
2019-03-19T00:10:21.040Z,6.91
2019-03-19T00:12:47.759Z,6.77
2019-03-19T00:15:14.593Z,6.78
2019-03-19T00:17:41.316Z,6.72
2019-03-19T00:20:08.570Z,6.70
2019-03-19T00:22:35.301Z,6.68
2019-03-19T00:25:02.055Z,6.68
2019-03-19T00:27:29.120Z,6.45
2019-03-19T00:29:55.839Z,6.30
2019-03-19T00:32:22.556Z,6.26
2019-03-19T00:34:49.399Z,6.22
2019-03-19T00:37:16.126Z,6.24
2019-03-19T00:39:42.850Z,6.34
2019-03-19T00:42:09.610Z,6.37
2019-03-19T00:44:36.328Z,6.43
2019-03-19T00:47:04.978Z,6.45
2019-03-19T00:49:31.714Z,6.51
2019-03-19T00:51:58.590Z,6.28
2019-03-19T00:54:25.286Z,6.28
2019-03-19T00:56:52.602Z,6.21
2019-03-19T00:59:19.308Z,6.21
2019-03-19T01:01:46.054Z,6.19
2019-03-19T01:04:12.745Z,6.19
2019-03-19T01:06:39.479Z,6.11
2019-03-19T01:09:06.236Z,5.70
2019-03-19T01:11:32.978Z,5.58
2019-03-19T01:14:01.599Z,5.65
2019-03-19T01:16:28.320Z,5.65
2019-03-19T01:18:55.039Z,5.58
2019-03-19T01:21:21.767Z,5.71
2019-03-19T01:23:48.434Z,5.71
2019-03-19T01:26:15.159Z,5.81
2019-03-19T01:28:41.886Z,5.70
2019-03-19T01:31:08.578Z,5.54
2019-03-19T01:33:35.304Z,5.36
2019-03-19T01:36:02.029Z,5.36
2019-03-19T01:38:28.775Z,5.48
2019-03-19T01:40:55.519Z,5.46
2019-03-19T01:43:22.233Z,5.21
2019-03-19T01:45:50.249Z,5.21
2019-03-19T01:48:17.068Z,5.01
2019-03-19T01:50:43.784Z,4.98
2019-03-19T01:53:10.494Z,4.91
2019-03-19T01:55:37.188Z,5.12
2019-03-19T01:58:03.899Z,5.16
2019-03-19T02:00:30.604Z,5.24
2019-03-19T02:02:57.453Z,5.24
2019-03-19T02:05:24.153Z,5.25
2019-03-19T02:07:50.878Z,5.15
2019-03-19T02:10:17.592Z,5.11
2019-03-19T02:12:44.344Z,4.73
2019-03-19T02:15:14.092Z,4.73
2019-03-19T02:17:40.832Z,4.40
2019-03-19T02:20:09.334Z,4.54
2019-03-19T02:22:36.049Z,4.70
2019-03-19T02:25:02.794Z,4.74
2019-03-19T02:27:29.971Z,4.70
2019-03-19T02:29:56.686Z,4.70
2019-03-19T02:32:26.576Z,4.68
2019-03-19T02:34:53.274Z,4.68
2019-03-19T02:37:19.987Z,4.82
2019-03-19T02:39:49.148Z,4.82
2019-03-19T02:42:15.804Z,4.76
2019-03-19T02:44:42.504Z,4.67
2019-03-19T02:47:11.591Z,4.57
2019-03-19T02:49:38.303Z,4.52
2019-03-19T02:52:05.040Z,4.40
2019-03-19T02:54:31.742Z,4.40
2019-03-19T02:56:58.851Z,4.14
2019-03-19T02:59:25.561Z,4.14
2019-03-19T03:01:52.407Z,4.09
2019-03-19T03:04:19.088Z,4.09
2019-03-19T03:06:48.578Z,4.22
2019-03-19T03:09:15.280Z,4.16
2019-03-19T03:11:42.005Z,4.10
2019-03-19T03:14:09.037Z,4.17
2019-03-19T03:16:35.745Z,4.21
2019-03-19T03:19:02.460Z,4.07
2019-03-19T03:21:29.603Z,4.05
2019-03-19T03:23:58.905Z,4.05
2019-03-19T03:26:25.614Z,4.10
2019-03-19T03:28:53.856Z,4.13
2019-03-19T03:31:20.594Z,4.04
2019-03-19T03:33:47.822Z,4.08
2019-03-19T03:36:14.530Z,4.07
2019-03-19T03:38:41.237Z,4.10
2019-03-19T03:41:07.960Z,3.81
2019-03-19T03:43:34.676Z,3.71
2019-03-19T03:46:01.357Z,3.73
2019-03-19T03:48:28.095Z,3.84
2019-03-19T03:50:54.819Z,3.84
2019-03-19T03:53:21.522Z,3.88
2019-03-19T03:55:49.641Z,3.82
2019-03-19T03:58:16.352Z,3.84
2019-03-19T04:00:43.470Z,3.88
2019-03-19T04:03:10.213Z,3.88
2019-03-19T04:05:39.705Z,3.67
2019-03-19T04:08:06.434Z,3.59
2019-03-19T04:10:33.146Z,3.68
2019-03-19T04:12:59.995Z,3.68
2019-03-19T04:15:26.711Z,3.60
2019-03-19T04:17:53.490Z,3.68
2019-03-19T04:20:20.168Z,3.80
2019-03-19T04:22:46.917Z,3.85
2019-03-19T04:25:13.588Z,3.88
2019-03-19T04:27:41.099Z,3.75
2019-03-19T04:30:08.151Z,3.74
2019-03-19T04:32:34.830Z,3.78
2019-03-19T04:35:01.908Z,3.73
2019-03-19T04:37:28.681Z,3.66
2019-03-19T04:39:55.399Z,3.58
2019-03-19T04:42:22.222Z,3.58
2019-03-19T04:44:48.941Z,3.50
2019-03-19T04:47:15.669Z,3.23
2019-03-19T04:49:42.378Z,3.26
2019-03-19T04:52:09.084Z,3.37
2019-03-19T04:54:35.807Z,3.37
2019-03-19T04:57:02.491Z,3.43
2019-03-19T04:59:29.233Z,3.32
2019-03-19T05:01:55.919Z,3.28
2019-03-19T05:04:22.655Z,3.22
2019-03-19T05:06:49.703Z,3.33
2019-03-19T05:09:16.444Z,3.44
2019-03-19T05:11:43.139Z,3.44
2019-03-19T05:14:09.923Z,3.45
2019-03-19T05:16:37.063Z,3.39
2019-03-19T05:19:03.812Z,3.31
2019-03-19T05:21:30.555Z,3.31
2019-03-19T05:23:57.267Z,3.40
2019-03-19T05:26:23.961Z,3.50
2019-03-19T05:28:50.995Z,3.62
2019-03-19T05:31:20.750Z,3.56
2019-03-19T05:33:47.467Z,3.41
2019-03-19T05:36:14.181Z,3.48
2019-03-19T05:38:40.927Z,3.44
2019-03-19T05:41:07.657Z,3.37
2019-03-19T05:43:34.350Z,3.39
2019-03-19T05:46:02.283Z,3.31
2019-03-19T05:48:28.991Z,3.30
2019-03-19T05:50:55.735Z,3.34
2019-03-19T05:53:22.434Z,3.34
2019-03-19T05:55:49.171Z,3.32
2019-03-19T05:58:15.884Z,3.36
2019-03-19T06:00:42.603Z,3.38
2019-03-19T06:03:11.489Z,3.51
2019-03-19T06:05:38.544Z,3.59
2019-03-19T06:08:06.569Z,3.52
2019-03-19T06:10:33.280Z,3.53
2019-03-19T06:12:59.947Z,3.59
2019-03-19T06:15:26.675Z,3.59
2019-03-19T06:17:53.439Z,3.62
2019-03-19T06:20:20.269Z,3.77
2019-03-19T06:22:46.955Z,3.83
2019-03-19T06:25:14.077Z,3.62
2019-03-19T06:27:40.794Z,3.53
2019-03-19T06:30:10.568Z,3.57
2019-03-19T06:32:37.389Z,3.58
2019-03-19T06:35:07.305Z,3.46
2019-03-19T06:37:34.441Z,3.59
2019-03-19T06:40:01.181Z,3.66
2019-03-19T06:42:28.189Z,3.74
2019-03-19T06:44:54.916Z,3.84
2019-03-19T06:47:21.627Z,3.83
2019-03-19T06:49:48.343Z,3.89
2019-03-19T06:52:15.043Z,3.95
2019-03-19T06:54:41.788Z,4.08
2019-03-19T06:57:08.521Z,4.13
2019-03-19T06:59:35.236Z,4.10
2019-03-19T07:02:02.000Z,4.16
2019-03-19T07:04:28.694Z,4.22
2019-03-19T07:06:55.436Z,4.29
2019-03-19T07:09:22.140Z,4.24
2019-03-19T07:11:48.902Z,4.28
2019-03-19T07:14:15.614Z,4.54
2019-03-19T07:16:42.377Z,4.51
2019-03-19T07:19:09.313Z,4.58
2019-03-19T07:21:37.376Z,4.76
2019-03-19T07:24:04.101Z,4.89
2019-03-19T07:26:30.895Z,4.91
2019-03-19T07:29:00.999Z,4.91
2019-03-19T07:31:31.117Z,5.04
2019-03-19T07:33:56.818Z,5.04
2019-03-19T07:36:23.853Z,5.00
2019-03-19T07:38:50.563Z,5.00
2019-03-19T07:41:19.779Z,5.05
2019-03-19T07:43:46.504Z,5.05
2019-03-19T07:46:13.264Z,5.21
2019-03-19T07:48:41.217Z,5.26
2019-03-19T07:51:07.930Z,5.39
2019-03-19T07:53:35.724Z,5.56
2019-03-19T07:56:03.870Z,5.56
2019-03-19T07:58:40.625Z,5.65
2019-03-19T08:01:00.546Z,5.61
2019-03-19T08:03:27.285Z,5.80
2019-03-19T08:05:54.153Z,5.97
2019-03-19T08:08:22.575Z,6.17
2019-03-19T08:10:51.808Z,6.36
2019-03-19T08:13:18.593Z,6.65
2019-03-19T08:15:45.401Z,6.65
2019-03-19T08:18:12.129Z,6.79
2019-03-19T08:20:40.174Z,6.93
2019-03-19T08:23:09.004Z,7.07
2019-03-19T08:25:35.744Z,7.07
2019-03-19T08:28:04.458Z,7.11
2019-03-19T08:30:31.306Z,7.03
2019-03-19T08:32:58.028Z,7.03
2019-03-19T08:35:27.755Z,7.01
2019-03-19T08:37:54.594Z,7.01
2019-03-19T08:40:21.291Z,6.97
2019-03-19T08:42:48.038Z,6.97
2019-03-19T08:45:15.241Z,7.36
2019-03-19T08:47:41.967Z,7.36
2019-03-19T08:50:11.649Z,7.69
2019-03-19T08:52:38.345Z,8.04
2019-03-19T08:55:05.198Z,8.04
2019-03-19T08:57:32.832Z,8.20
2019-03-19T08:59:59.570Z,8.33
2019-03-19T09:02:26.413Z,8.35
2019-03-19T09:04:53.238Z,8.55
2019-03-19T09:07:20.247Z,8.65
2019-03-19T09:09:46.941Z,8.74
2019-03-19T09:12:15.627Z,8.73
2019-03-19T09:14:42.553Z,8.78
2019-03-19T09:17:09.472Z,8.86
2019-03-19T09:19:36.238Z,8.86
2019-03-19T09:22:03.083Z,9.05
2019-03-19T09:24:30.346Z,9.09
2019-03-19T09:27:01.202Z,9.44
2019-03-19T09:29:27.928Z,9.39
2019-03-19T09:31:54.694Z,9.38
2019-03-19T09:34:21.433Z,9.23
2019-03-19T09:36:57.049Z,9.37
2019-03-19T09:39:16.849Z,9.53
2019-03-19T09:41:45.498Z,9.14
2019-03-19T09:44:15.966Z,9.10
2019-03-19T09:46:42.677Z,9.01
2019-03-19T09:49:09.456Z,8.80
2019-03-19T09:51:36.190Z,8.64
2019-03-19T09:54:03.054Z,8.91
2019-03-19T09:56:32.769Z,9.08
2019-03-19T09:59:00.206Z,9.35
2019-03-19T10:01:27.135Z,9.52
2019-03-19T10:03:53.884Z,9.70
2019-03-19T10:06:20.596Z,9.75
2019-03-19T10:08:47.316Z,9.93
2019-03-19T10:11:14.003Z,10.17
2019-03-19T10:13:40.788Z,10.34
2019-03-19T10:16:07.825Z,10.13
2019-03-19T10:18:36.502Z,10.20
2019-03-19T10:21:03.271Z,9.99
2019-03-19T10:23:34.688Z,10.06
2019-03-19T10:26:05.268Z,10.02
2019-03-19T10:28:35.909Z,10.23
2019-03-19T10:31:02.789Z,10.13
2019-03-19T10:33:32.115Z,10.26
2019-03-19T10:35:58.800Z,10.48
2019-03-19T10:38:25.966Z,10.72
2019-03-19T10:40:52.706Z,10.89
2019-03-19T10:43:19.861Z,11.11
2019-03-19T10:45:46.662Z,10.61
2019-03-19T10:48:16.664Z,10.65
2019-03-19T10:50:43.412Z,10.52
2019-03-19T10:53:13.302Z,10.76
2019-03-19T10:55:39.990Z,10.95
2019-03-19T10:58:10.852Z,11.30
2019-03-19T11:00:38.063Z,11.59
2019-03-19T11:03:04.816Z,11.77
2019-03-19T11:05:31.547Z,11.82
2019-03-19T11:07:58.466Z,11.62
2019-03-19T11:10:25.312Z,11.74
2019-03-19T11:12:52.097Z,11.22
2019-03-19T11:15:19.114Z,10.86
2019-03-19T11:17:45.846Z,10.60
2019-03-19T11:20:15.382Z,10.41
2019-03-19T11:22:42.191Z,10.21
2019-03-19T11:25:13.302Z,9.95
2019-03-19T11:27:40.042Z,9.98
2019-03-19T11:30:16.140Z,9.88
2019-03-19T11:32:43.340Z,9.93
2019-03-19T11:35:10.585Z,10.26
2019-03-19T11:37:37.295Z,10.61
2019-03-19T11:40:04.445Z,10.97
2019-03-19T11:42:31.170Z,11.07
2019-03-19T11:44:58.304Z,10.85
2019-03-19T11:47:25.083Z,11.24
2019-03-19T11:49:52.251Z,11.60
2019-03-19T11:52:18.975Z,11.95
2019-03-19T11:54:45.896Z,11.72
2019-03-19T11:57:12.749Z,11.49
2019-03-19T11:59:39.538Z,11.47
2019-03-19T12:02:06.287Z,11.92
2019-03-19T12:04:33.513Z,11.74
2019-03-19T12:07:00.757Z,11.65
2019-03-19T12:09:30.184Z,12.01
2019-03-19T12:11:57.089Z,12.34
2019-03-19T12:14:23.827Z,12.48
2019-03-19T12:16:55.006Z,12.24
2019-03-19T12:19:22.897Z,12.02
2019-03-19T12:21:50.134Z,11.99
2019-03-19T12:24:17.066Z,12.44
2019-03-19T12:26:43.926Z,12.49
2019-03-19T12:29:10.799Z,12.41
2019-03-19T12:31:41.691Z,12.60
2019-03-19T12:34:09.894Z,12.56
2019-03-19T12:36:40.435Z,12.87
2019-03-19T12:39:11.657Z,13.11
2019-03-19T12:41:38.585Z,12.60
2019-03-19T12:44:07.131Z,12.46
2019-03-19T12:46:35.744Z,12.82
2019-03-19T12:49:02.579Z,13.18
2019-03-19T12:51:29.341Z,12.85
2019-03-19T12:53:56.264Z,12.54
2019-03-19T12:56:23.041Z,12.80
2019-03-19T12:58:50.151Z,12.86
2019-03-19T13:01:17.825Z,13.25
2019-03-19T13:03:44.794Z,13.74
2019-03-19T13:06:11.509Z,13.58
2019-03-19T13:08:38.450Z,13.50
2019-03-19T13:11:05.180Z,13.26
2019-03-19T13:13:32.015Z,13.16
2019-03-19T13:15:58.910Z,13.45
2019-03-19T13:18:25.835Z,13.25
2019-03-19T13:20:53.597Z,13.12
2019-03-19T13:23:20.737Z,13.48
2019-03-19T13:25:47.435Z,13.69
2019-03-19T13:28:14.312Z,14.09
2019-03-19T13:30:45.280Z,13.75
2019-03-19T13:33:10.074Z,13.61
2019-03-19T13:35:36.804Z,13.47
2019-03-19T13:38:03.997Z,13.65
2019-03-19T13:40:31.103Z,13.66
2019-03-19T13:42:57.977Z,13.97
2019-03-19T13:45:25.408Z,14.16
2019-03-19T13:47:52.263Z,14.53
2019-03-19T13:50:19.021Z,15.03
2019-03-19T13:52:45.853Z,15.61
2019-03-19T13:55:15.265Z,15.26
2019-03-19T13:57:42.072Z,15.04
2019-03-19T14:00:10.076Z,15.08
2019-03-19T14:02:36.789Z,15.10
2019-03-19T14:05:13.261Z,14.61
2019-03-19T14:07:40.121Z,15.14
2019-03-19T14:10:07.988Z,15.71
2019-03-19T14:12:34.731Z,15.80
2019-03-19T14:15:03.122Z,14.85
2019-03-19T14:17:30.295Z,14.73
2019-03-19T14:19:59.861Z,15.67
2019-03-19T14:22:27.296Z,15.98
2019-03-19T14:24:54.039Z,15.72
2019-03-19T14:27:20.778Z,15.88
2019-03-19T14:29:47.504Z,15.61
2019-03-19T14:32:14.269Z,15.26
2019-03-19T14:34:41.043Z,15.68
2019-03-19T14:37:12.400Z,16.70
2019-03-19T14:39:39.324Z,17.16
2019-03-19T14:42:06.068Z,16.51
2019-03-19T14:44:33.777Z,16.48
2019-03-19T14:47:00.611Z,15.77
2019-03-19T14:49:27.394Z,16.40
2019-03-19T14:51:54.145Z,16.46
2019-03-19T14:54:20.897Z,17.31
2019-03-19T14:56:47.651Z,16.62
2019-03-19T14:59:14.389Z,16.60
2019-03-19T15:01:41.131Z,16.67
2019-03-19T15:04:09.783Z,16.92
2019-03-19T15:06:39.271Z,17.04
2019-03-19T15:09:06.032Z,16.74
2019-03-19T15:11:32.808Z,16.44
2019-03-19T15:13:59.591Z,16.93
2019-03-19T15:16:26.411Z,16.70
2019-03-19T15:18:55.353Z,16.40
2019-03-19T15:21:25.885Z,16.84
2019-03-19T15:23:55.685Z,16.89
2019-03-19T15:26:22.407Z,16.83
2019-03-19T15:28:49.171Z,16.76
2019-03-19T15:31:15.909Z,17.41
2019-03-19T15:33:42.958Z,17.79
2019-03-19T15:36:09.837Z,18.66
2019-03-19T15:38:37.063Z,19.18
2019-03-19T15:41:03.935Z,18.55
2019-03-19T15:43:30.677Z,16.80
2019-03-19T15:45:58.010Z,15.57
2019-03-19T15:48:25.022Z,15.47
2019-03-19T15:50:51.815Z,15.47
2019-03-19T15:53:18.693Z,14.92
2019-03-19T15:55:45.548Z,14.26
2019-03-19T15:58:12.607Z,14.57
2019-03-19T16:00:39.409Z,14.88
2019-03-19T16:03:06.171Z,14.52
2019-03-19T16:05:32.913Z,14.90
2019-03-19T16:07:59.865Z,14.95
2019-03-19T16:10:26.602Z,14.44
2019-03-19T16:12:53.423Z,14.16
2019-03-19T16:15:20.575Z,14.17
2019-03-19T16:17:50.053Z,14.46
2019-03-19T16:20:16.987Z,14.72
2019-03-19T16:22:43.708Z,14.64
2019-03-19T16:25:10.708Z,14.42
2019-03-19T16:27:37.445Z,14.41
2019-03-19T16:30:04.753Z,14.28
2019-03-19T16:32:31.888Z,14.36
2019-03-19T16:34:58.765Z,14.49
2019-03-19T16:37:25.939Z,14.24
2019-03-19T16:39:52.777Z,14.15
2019-03-19T16:42:19.670Z,14.26
2019-03-19T16:44:48.676Z,15.08
2019-03-19T16:47:15.412Z,16.03
2019-03-19T16:49:42.638Z,16.53
2019-03-19T16:52:09.429Z,16.39
2019-03-19T16:54:36.268Z,16.18
2019-03-19T16:57:03.166Z,16.26
2019-03-19T16:59:30.089Z,15.56
2019-03-19T17:02:01.780Z,14.57
2019-03-19T17:04:25.831Z,13.90
2019-03-19T17:06:52.649Z,13.65
2019-03-19T17:09:19.758Z,13.43
2019-03-19T17:11:46.540Z,13.32
2019-03-19T17:14:13.281Z,13.30
2019-03-19T17:16:40.019Z,13.25
2019-03-19T17:19:07.214Z,13.05
2019-03-19T17:21:34.512Z,13.05
2019-03-19T17:24:01.355Z,13.12
2019-03-19T17:26:28.327Z,13.16
2019-03-19T17:28:55.077Z,13.25
2019-03-19T17:31:22.296Z,13.24
2019-03-19T17:33:49.549Z,13.25
2019-03-19T17:36:16.302Z,13.22
2019-03-19T17:38:43.009Z,13.16
2019-03-19T17:41:09.757Z,13.16
2019-03-19T17:43:37.678Z,13.07
2019-03-19T17:46:04.398Z,12.99
2019-03-19T17:48:31.137Z,12.84
2019-03-19T17:51:01.413Z,12.79
2019-03-19T17:53:28.278Z,12.71
2019-03-19T17:55:55.487Z,12.71
2019-03-19T17:58:44.519Z,12.59
2019-03-19T18:01:17.356Z,12.53
2019-03-19T18:03:41.293Z,12.48
2019-03-19T18:06:09.539Z,12.35
2019-03-19T18:08:36.263Z,12.24
2019-03-19T18:11:03.575Z,12.31
2019-03-19T18:13:30.275Z,12.29
2019-03-19T18:15:59.561Z,12.18
2019-03-19T18:18:26.750Z,11.93
2019-03-19T18:20:53.738Z,11.83
2019-03-19T18:23:20.627Z,11.83
2019-03-19T18:25:49.229Z,11.79
2019-03-19T18:28:16.727Z,11.72
2019-03-19T18:30:47.341Z,11.64
2019-03-19T18:33:14.072Z,11.50
2019-03-19T18:35:41.100Z,11.33
2019-03-19T18:38:11.361Z,11.15
2019-03-19T18:40:40.041Z,11.02
2019-03-19T18:43:07.462Z,10.90
2019-03-19T18:45:39.568Z,10.68
2019-03-19T18:48:06.692Z,10.54
2019-03-19T18:50:33.730Z,10.50
2019-03-19T18:53:00.775Z,10.45
2019-03-19T18:55:29.579Z,10.36
2019-03-19T18:57:56.349Z,10.39
2019-03-19T19:00:24.835Z,10.45
2019-03-19T19:02:51.579Z,10.42
2019-03-19T19:05:19.059Z,10.22
2019-03-19T19:07:45.763Z,10.06
2019-03-19T19:10:12.563Z,10.02
2019-03-19T19:12:39.320Z,9.91
2019-03-19T19:15:07.929Z,9.91
2019-03-19T19:17:34.758Z,9.85
2019-03-19T19:20:02.176Z,9.77
2019-03-19T19:22:28.936Z,9.60
2019-03-19T19:24:55.652Z,9.56
2019-03-19T19:27:22.357Z,9.51
2019-03-19T19:29:49.396Z,9.45
2019-03-19T19:34:56.988Z,9.14
2019-03-19T19:37:24.196Z,9.25
2019-03-19T19:39:51.446Z,9.21
2019-03-19T19:42:21.323Z,9.19
2019-03-19T19:44:47.994Z,9.22
2019-03-19T19:47:15.108Z,9.24
2019-03-19T19:49:42.172Z,9.16
2019-03-19T19:52:09.298Z,9.11
2019-03-19T19:54:36.253Z,8.98
2019-03-19T19:57:03.266Z,8.97
2019-03-19T19:59:29.979Z,8.78
2019-03-19T20:01:59.749Z,8.75
2019-03-19T20:04:26.431Z,8.82
2019-03-19T20:06:53.130Z,8.73
2019-03-19T20:09:19.844Z,8.58
2019-03-19T20:11:46.572Z,8.63
2019-03-19T20:14:13.284Z,8.64
2019-03-19T20:16:39.970Z,8.68
2019-03-19T20:19:06.710Z,8.61
2019-03-19T20:21:33.492Z,8.44
2019-03-19T20:24:00.189Z,8.30
2019-03-19T20:26:26.926Z,8.25
2019-03-19T20:28:56.697Z,8.11
2019-03-19T20:31:23.384Z,8.04
2019-03-19T20:33:50.464Z,7.94
2019-03-19T20:36:17.352Z,7.85
2019-03-19T20:38:44.061Z,7.72
2019-03-19T20:41:10.797Z,7.69
2019-03-19T20:43:37.746Z,7.38
2019-03-19T20:46:04.594Z,7.52
2019-03-19T20:48:31.944Z,7.40
2019-03-19T20:50:59.274Z,7.21
2019-03-19T20:53:26.145Z,7.16
2019-03-19T20:55:53.188Z,7.17
2019-03-19T20:58:19.882Z,7.13
2019-03-19T21:00:46.674Z,7.21
2019-03-19T21:03:14.167Z,7.21
2019-03-19T21:05:41.140Z,7.17
2019-03-19T21:08:09.465Z,7.20
2019-03-19T21:10:37.950Z,7.12
2019-03-19T21:13:04.855Z,7.03
2019-03-19T21:15:31.677Z,6.92
2019-03-19T21:17:59.004Z,6.83
2019-03-19T21:20:25.787Z,6.85
2019-03-19T21:22:52.813Z,6.69
2019-03-19T21:25:19.621Z,6.69
2019-03-19T21:27:46.471Z,6.60
2019-03-19T21:30:13.682Z,6.62
2019-03-19T21:32:40.575Z,6.77
2019-03-19T21:35:09.589Z,6.84
2019-03-19T21:37:36.365Z,6.72
2019-03-19T21:40:03.814Z,6.51
2019-03-19T21:42:30.835Z,6.52
2019-03-19T21:45:04.634Z,6.34
2019-03-19T21:47:31.624Z,4.91
2019-03-19T21:49:58.484Z,4.91
2019-03-19T21:52:27.158Z,6.20
2019-03-19T21:54:56.342Z,5.99
2019-03-19T21:57:23.492Z,6.07
2019-03-19T21:59:50.828Z,6.02
2019-03-19T22:02:17.967Z,6.06
2019-03-19T22:04:44.806Z,5.98
2019-03-19T22:07:11.694Z,5.98
2019-03-19T22:09:38.417Z,5.99
2019-03-19T22:12:05.187Z,5.88
2019-03-19T22:14:34.048Z,6.10
2019-03-19T22:17:00.801Z,6.10
2019-03-19T22:19:29.665Z,6.11
2019-03-19T22:21:56.512Z,6.10
2019-03-19T22:24:23.537Z,5.86
2019-03-19T22:26:50.302Z,5.86
2019-03-19T22:29:17.035Z,5.74
2019-03-19T22:31:44.050Z,5.78
2019-03-19T22:34:14.320Z,5.82
2019-03-19T22:36:39.503Z,5.68
2019-03-19T22:39:07.608Z,5.68
2019-03-19T22:41:37.167Z,5.72
2019-03-19T22:44:03.927Z,5.60
2019-03-19T22:46:30.629Z,5.53
2019-03-19T22:48:57.350Z,5.38
2019-03-19T22:51:24.197Z,5.41
2019-03-19T22:53:53.515Z,5.41
2019-03-19T22:56:20.239Z,5.37
2019-03-19T22:58:46.932Z,5.20
2019-03-19T23:01:15.416Z,5.15
2019-03-19T23:03:42.552Z,5.00
2019-03-19T23:06:09.514Z,4.90
2019-03-19T23:08:36.368Z,4.90
2019-03-19T23:11:03.235Z,4.63
2019-03-19T23:13:29.976Z,4.63
2019-03-19T23:15:56.683Z,4.79
2019-03-19T23:18:23.424Z,4.79
2019-03-19T23:20:50.163Z,4.76
2019-03-19T23:23:16.892Z,4.97
2019-03-19T23:25:44.012Z,4.97
2019-03-19T23:28:10.748Z,4.78
2019-03-19T23:30:39.688Z,4.78
2019-03-19T23:33:06.472Z,4.79
2019-03-19T23:35:33.209Z,4.95
2019-03-19T23:38:00.046Z,4.94
2019-03-19T23:40:30.407Z,4.94
2019-03-19T23:42:59.940Z,4.98
2019-03-19T23:45:26.629Z,4.57
2019-03-19T23:47:53.377Z,4.60
2019-03-19T23:50:20.114Z,4.60
2019-03-19T23:52:46.875Z,4.56
2019-03-19T23:55:13.773Z,4.78
2019-03-19T23:57:40.689Z,4.78
